createdAt,value
2023-05-12T00:02:17.755Z,31.37
2023-05-12T00:05:00.853Z,30.07
2023-05-12T00:10:26.636Z,34.57
2023-05-12T00:13:00.650Z,30.53
2023-05-12T00:15:43.730Z,32.90
2023-05-12T00:21:33.044Z,32.10
2023-05-12T00:25:01.002Z,30.50
2023-05-12T00:27:44.358Z,30.20
2023-05-12T00:30:28.843Z,29.23
2023-05-12T00:33:05.317Z,28.67
2023-05-12T00:35:43.653Z,27.70
2023-05-12T00:41:20.055Z,26.30
2023-05-12T00:44:07.534Z,27.23
2023-05-12T00:46:40.776Z,25.50
2023-05-12T00:49:56.081Z,26.40
2023-05-12T00:52:34.710Z,24.73
2023-05-12T00:55:31.559Z,26.20
2023-05-12T00:58:20.371Z,24.40
2023-05-12T01:03:34.868Z,27.77
2023-05-12T01:06:16.632Z,26.43
2023-05-12T01:08:59.387Z,27.80
2023-05-12T01:11:32.531Z,28.93
2023-05-12T01:14:02.790Z,28.83
2023-05-12T01:16:59.037Z,27.77
2023-05-12T01:19:50.259Z,28.60
2023-05-12T01:22:22.135Z,27.40
2023-05-12T01:25:00.568Z,27.50
2023-05-12T01:27:49.277Z,26.07
2023-05-12T01:30:26.235Z,26.90
2023-05-12T01:32:57.550Z,27.07
2023-05-12T01:35:32.242Z,29.03
2023-05-12T01:38:04.584Z,29.20
2023-05-12T01:40:56.175Z,26.90
2023-05-12T01:46:40.536Z,24.90
2023-05-12T01:49:34.096Z,25.60
2023-05-12T01:55:00.319Z,31.10
2023-05-12T01:57:33.597Z,31.73
2023-05-12T02:00:15.628Z,26.80
2023-05-12T02:02:45.064Z,24.90
2023-05-12T02:05:16.006Z,25.07
2023-05-12T02:07:48.967Z,25.23
2023-05-12T02:10:16.660Z,22.50
2023-05-12T02:12:50.066Z,24.37
2023-05-12T02:15:21.337Z,22.40
2023-05-12T02:17:50.526Z,25.60
2023-05-12T02:20:29.426Z,23.50
2023-05-12T02:23:03.172Z,23.50
2023-05-12T02:25:34.158Z,24.33
2023-05-12T02:28:18.824Z,21.90
2023-05-12T02:31:13.078Z,23.07
2023-05-12T02:33:46.900Z,20.00
2023-05-12T02:36:44.685Z,19.80
2023-05-12T02:45:16.440Z,23.07
2023-05-12T02:47:47.089Z,23.87
2023-05-12T02:50:23.283Z,23.83
2023-05-12T02:52:55.274Z,26.60
2023-05-12T02:58:40.202Z,35.67
2023-05-12T03:01:18.720Z,30.10
2023-05-12T03:04:03.762Z,37.80
2023-05-12T03:06:45.016Z,29.50
2023-05-12T03:09:13.522Z,35.43
2023-05-12T03:12:21.572Z,24.63
2023-05-12T03:14:48.354Z,20.37
2023-05-12T03:19:03.156Z,22.90
2023-05-12T03:23:36.957Z,11.33
2023-05-12T03:26:08.931Z,9.20
2023-05-12T03:28:39.246Z,8.77
2023-05-12T03:31:06.261Z,10.47
2023-05-12T03:33:33.707Z,13.97
2023-05-12T03:36:00.814Z,14.30
2023-05-12T03:38:30.782Z,15.53
2023-05-12T03:41:06.891Z,16.17
2023-05-12T03:43:40.207Z,15.07
2023-05-12T03:46:07.350Z,12.73
2023-05-12T03:48:34.737Z,11.43
2023-05-12T03:51:01.797Z,10.13
2023-05-12T03:53:31.916Z,9.97
2023-05-12T03:55:58.824Z,11.10
2023-05-12T03:58:34.301Z,8.90
2023-05-12T04:01:13.454Z,9.40
2023-05-12T04:03:45.923Z,9.17
2023-05-12T04:06:16.346Z,10.17
2023-05-12T04:08:58.930Z,11.97
2023-05-12T04:11:43.866Z,11.13
2023-05-12T04:20:33.044Z,15.47
2023-05-12T04:23:00.694Z,15.63
2023-05-12T04:25:27.874Z,15.67
2023-05-12T04:28:05.098Z,17.50
2023-05-12T04:30:50.824Z,16.70
2023-05-12T04:33:18.101Z,16.47
2023-05-12T04:35:45.873Z,17.73
2023-05-12T04:38:21.216Z,18.00
2023-05-12T04:40:48.446Z,18.30
2023-05-12T04:45:46.472Z,18.27
2023-05-12T04:48:13.303Z,18.30
2023-05-12T04:50:41.479Z,18.50
2023-05-12T04:53:08.600Z,22.13
2023-05-12T04:55:36.792Z,19.37
2023-05-12T04:58:16.233Z,20.90
2023-05-12T05:00:43.502Z,21.03
2023-05-12T05:03:20.145Z,19.60
2023-05-12T05:05:47.097Z,21.00
2023-05-12T05:08:24.449Z,21.87
2023-05-12T05:10:51.210Z,24.37
2023-05-12T05:13:53.079Z,24.00
2023-05-12T05:16:23.518Z,22.57
2023-05-12T05:18:52.930Z,22.70
2023-05-12T05:21:31.370Z,24.93
2023-05-12T05:23:58.038Z,24.50
2023-05-12T05:26:33.831Z,24.40
2023-05-12T05:29:00.664Z,26.30
2023-05-12T05:31:29.033Z,23.73
2023-05-12T05:34:06.275Z,23.17
2023-05-12T05:36:37.862Z,22.87
2023-05-12T05:39:10.568Z,24.13
2023-05-12T05:41:39.589Z,24.23
2023-05-12T05:44:09.330Z,21.00
2023-05-12T05:49:24.727Z,22.13
2023-05-12T05:51:56.379Z,21.70
2023-05-12T05:54:28.368Z,21.77
2023-05-12T05:57:23.929Z,23.17
2023-05-12T05:59:54.310Z,21.33
2023-05-12T06:02:24.914Z,21.13
2023-05-12T06:11:20.819Z,19.20
2023-05-12T06:14:00.430Z,19.60
2023-05-12T06:16:29.381Z,17.67
2023-05-12T06:19:26.063Z,16.83
2023-05-12T06:21:59.060Z,17.00
2023-05-12T06:24:25.865Z,15.67
2023-05-12T06:27:01.881Z,16.90
2023-05-12T06:29:28.608Z,15.50
2023-05-12T06:32:04.105Z,13.73
2023-05-12T06:34:30.972Z,15.90
2023-05-12T06:36:58.009Z,15.03
2023-05-12T06:39:27.856Z,14.60
2023-05-12T06:42:19.630Z,15.57
2023-05-12T06:44:53.727Z,16.10
2023-05-12T06:47:31.501Z,15.53
2023-05-12T06:49:58.408Z,15.53
2023-05-12T06:52:29.165Z,15.87
2023-05-12T06:54:59.025Z,17.07
2023-05-12T06:57:29.846Z,16.40
2023-05-12T06:59:58.641Z,14.80
2023-05-12T07:02:33.018Z,14.90
2023-05-12T07:04:59.777Z,14.37
2023-05-12T07:07:26.493Z,15.80
2023-05-12T07:10:00.458Z,16.00
2023-05-12T07:12:27.231Z,15.00
2023-05-12T07:14:53.909Z,15.20
2023-05-12T07:17:21.691Z,15.10
2023-05-12T07:19:48.606Z,15.57
2023-05-12T07:22:23.616Z,16.43
2023-05-12T07:24:51.757Z,15.97
2023-05-12T07:27:18.543Z,16.20
2023-05-12T07:29:54.925Z,16.70
2023-05-12T07:32:24.424Z,17.20
2023-05-12T07:34:53.287Z,18.73
2023-05-12T07:37:23.176Z,17.10
2023-05-12T07:39:49.944Z,17.97
2023-05-12T07:42:21.953Z,17.67
2023-05-12T07:44:56.540Z,18.97
2023-05-12T07:47:29.457Z,18.70
2023-05-12T07:50:26.328Z,17.63
2023-05-12T07:52:54.057Z,19.90
2023-05-12T07:55:22.176Z,19.00
2023-05-12T07:57:55.407Z,18.93
2023-05-12T08:00:22.310Z,19.50
2023-05-12T08:02:56.899Z,22.90
2023-05-12T08:05:26.492Z,21.90
2023-05-12T08:08:18.097Z,23.00
2023-05-12T08:10:52.523Z,22.07
2023-05-12T08:13:20.473Z,23.30
2023-05-12T08:15:48.317Z,21.47
2023-05-12T08:18:24.882Z,21.27
2023-05-12T08:20:51.801Z,20.90
2023-05-12T08:24:31.604Z,17.13
2023-05-12T08:26:58.530Z,17.83
2023-05-12T08:29:28.525Z,18.63
2023-05-12T08:32:04.959Z,16.97
2023-05-12T08:34:49.352Z,16.20
2023-05-12T08:37:19.429Z,16.77
2023-05-12T08:39:46.522Z,15.90
2023-05-12T08:42:21.895Z,14.97
2023-05-12T08:45:02.214Z,15.30
2023-05-12T08:47:35.262Z,13.90
2023-05-12T08:50:03.672Z,14.80
2023-05-12T08:52:34.731Z,14.57
2023-05-12T08:55:15.534Z,14.70
2023-05-12T08:58:14.531Z,15.80
2023-05-12T09:00:48.035Z,15.60
2023-05-12T09:03:42.220Z,15.87
2023-05-12T09:06:17.822Z,15.50
2023-05-12T09:08:48.036Z,17.83
2023-05-12T09:11:24.428Z,17.00
2023-05-12T09:14:04.683Z,16.57
2023-05-12T09:16:34.782Z,18.67
2023-05-12T09:19:13.702Z,18.53
2023-05-12T09:22:14.918Z,18.40
2023-05-12T09:24:41.954Z,16.77
2023-05-12T09:27:11.521Z,16.77
2023-05-12T09:29:58.539Z,15.40
2023-05-12T09:32:33.675Z,14.40
2023-05-12T09:35:15.364Z,14.67
2023-05-12T09:37:47.307Z,13.63
2023-05-12T09:40:42.941Z,15.60
2023-05-12T09:43:15.368Z,15.20
2023-05-12T09:45:55.270Z,14.90
2023-05-12T09:51:31.506Z,15.70
2023-05-12T09:54:30.631Z,16.70
2023-05-12T09:57:03.734Z,16.53
2023-05-12T09:59:40.979Z,17.93
2023-05-12T10:03:15.986Z,17.70
2023-05-12T10:05:49.362Z,19.07
2023-05-12T10:08:41.943Z,18.77
2023-05-12T10:11:09.128Z,18.43
2023-05-12T10:14:01.981Z,15.57
2023-05-12T10:16:48.111Z,17.67
2023-05-12T10:19:30.807Z,15.30
2023-05-12T10:23:12.684Z,15.60
2023-05-12T10:25:41.565Z,15.40
2023-05-12T10:28:14.542Z,12.60
2023-05-12T10:30:43.194Z,11.70
2023-05-12T10:33:11.749Z,12.43
2023-05-12T10:36:09.611Z,12.43
2023-05-12T10:42:49.907Z,9.30
2023-05-12T10:45:20.656Z,9.67
2023-05-12T10:47:47.983Z,10.50
2023-05-12T10:50:30.747Z,9.83
2023-05-12T10:53:00.114Z,9.30
2023-05-12T10:55:43.286Z,9.83
2023-05-12T10:58:16.264Z,9.10
2023-05-12T11:01:00.321Z,9.20
2023-05-12T11:03:56.300Z,8.90
2023-05-12T11:07:09.789Z,8.37
2023-05-12T11:09:47.093Z,8.43
2023-05-12T11:12:23.554Z,8.67
2023-05-12T11:14:55.869Z,8.37
2023-05-12T11:17:26.177Z,8.47
2023-05-12T11:20:20.442Z,8.80
2023-05-12T11:22:54.345Z,8.67
2023-05-12T11:25:21.318Z,8.47
2023-05-12T11:27:50.726Z,8.20
2023-05-12T11:30:53.318Z,8.40
2023-05-12T11:33:51.868Z,8.63
2023-05-12T11:36:31.055Z,8.57
2023-05-12T11:39:00.375Z,8.30
2023-05-12T11:41:33.032Z,7.70
2023-05-12T11:44:29.169Z,7.93
2023-05-12T11:47:13.284Z,7.50
2023-05-12T11:50:01.095Z,7.10
2023-05-12T11:52:30.265Z,6.60
2023-05-12T11:55:01.025Z,6.70
2023-05-12T11:57:33.001Z,6.00
2023-05-12T12:00:27.883Z,6.60
2023-05-12T12:03:14.600Z,6.30
2023-05-12T12:06:09.958Z,5.73
2023-05-12T12:08:56.816Z,5.90
2023-05-12T12:11:28.161Z,6.10
2023-05-12T12:13:59.223Z,5.63
2023-05-12T12:17:05.948Z,5.90
2023-05-12T12:19:41.978Z,5.87
2023-05-12T12:22:36.212Z,6.03
2023-05-12T12:25:03.877Z,5.27
2023-05-12T12:27:35.330Z,5.23
2023-05-12T12:33:18.695Z,6.13
2023-05-12T12:38:54.534Z,5.00
2023-05-12T12:44:17.677Z,6.00
2023-05-12T12:46:44.408Z,5.50
2023-05-12T12:53:25.216Z,5.23
2023-05-12T12:55:52.196Z,5.90
2023-05-12T12:58:50.385Z,5.40
2023-05-12T13:05:25.508Z,5.87
2023-05-12T13:16:21.249Z,4.90
2023-05-12T13:18:48.061Z,5.00
2023-05-12T13:22:17.828Z,4.90
2023-05-12T13:24:48.362Z,5.00
2023-05-12T13:28:02.711Z,6.33
2023-05-12T13:36:15.890Z,5.90
2023-05-12T13:39:36.577Z,5.60
2023-05-12T13:42:28.391Z,6.00
2023-05-12T13:45:04.453Z,6.03
2023-05-12T13:47:34.214Z,6.00
2023-05-12T13:53:19.351Z,5.73
2023-05-12T13:55:46.142Z,5.83
2023-05-12T13:58:15.645Z,6.13
2023-05-12T14:12:21.661Z,5.33
2023-05-12T14:24:13.550Z,5.73
2023-05-12T14:27:02.182Z,5.40
2023-05-12T14:29:28.986Z,5.50
2023-05-12T14:32:27.413Z,5.57
2023-05-12T14:43:21.066Z,5.37
2023-05-12T14:46:01.715Z,5.10
2023-05-12T14:48:59.197Z,5.43
2023-05-12T14:52:03.690Z,5.77
2023-05-12T14:54:33.385Z,5.43
2023-05-12T14:57:52.338Z,5.43
2023-05-12T15:00:21.208Z,5.33
2023-05-12T15:02:59.548Z,5.40
2023-05-12T15:05:41.132Z,5.80
2023-05-12T15:08:13.503Z,5.50
2023-05-12T15:13:55.708Z,5.30
2023-05-12T15:16:28.169Z,5.20
2023-05-12T15:18:59.576Z,5.30
2023-05-12T15:21:26.460Z,5.23
2023-05-12T15:23:53.237Z,5.67
2023-05-12T15:26:32.677Z,4.97
2023-05-12T15:29:08.541Z,5.23
2023-05-12T15:31:42.489Z,5.03
2023-05-12T15:37:20.559Z,4.83
2023-05-12T15:39:53.178Z,5.20
2023-05-12T15:42:26.295Z,5.30
2023-05-12T15:45:01.514Z,4.90
2023-05-12T15:47:32.651Z,4.80
2023-05-12T15:50:10.536Z,4.43
2023-05-12T15:52:50.239Z,5.33
2023-05-12T15:55:19.753Z,4.73
2023-05-12T15:57:55.572Z,4.90
2023-05-12T16:00:22.756Z,5.23
2023-05-12T16:02:49.940Z,4.87
2023-05-12T16:05:20.488Z,4.50
2023-05-12T16:15:33.722Z,4.80
2023-05-12T16:18:00.435Z,4.90
2023-05-12T16:20:27.341Z,4.20
2023-05-12T16:22:57.178Z,4.67
2023-05-12T16:25:23.986Z,4.90
2023-05-12T16:27:50.673Z,4.30
2023-05-12T16:30:42.796Z,4.30
2023-05-12T16:33:12.957Z,4.80
2023-05-12T16:35:51.449Z,4.60
2023-05-12T16:38:19.084Z,4.70
2023-05-12T16:40:45.948Z,5.00
2023-05-12T16:43:21.616Z,4.90
2023-05-12T16:46:12.248Z,5.23
2023-05-12T16:48:39.422Z,4.53
2023-05-12T16:51:10.501Z,4.43
2023-05-12T16:53:41.081Z,5.13
2023-05-12T16:56:08.121Z,4.97
2023-05-12T16:58:37.708Z,5.00
2023-05-12T17:01:31.690Z,5.03
2023-05-12T17:03:58.621Z,5.00
2023-05-12T17:06:25.454Z,4.93
2023-05-12T17:08:52.147Z,5.00
2023-05-12T17:11:18.926Z,4.73
2023-05-12T17:13:45.835Z,5.10
2023-05-12T17:16:13.227Z,5.10
2023-05-12T17:21:11.856Z,4.80
2023-05-12T17:23:41.497Z,4.90
2023-05-12T17:26:08.144Z,4.43
2023-05-12T17:28:37.943Z,4.70
2023-05-12T17:31:12.432Z,5.37
2023-05-12T17:33:39.168Z,4.83
2023-05-12T17:36:12.950Z,5.30
2023-05-12T17:38:43.917Z,4.73
2023-05-12T17:41:10.833Z,4.73
2023-05-12T17:43:37.531Z,5.43
2023-05-12T17:46:06.949Z,5.23
2023-05-12T17:48:40.662Z,4.70
2023-05-12T17:51:09.924Z,5.10
2023-05-12T17:56:28.726Z,4.50
2023-05-12T17:58:55.585Z,5.13
2023-05-12T18:01:22.335Z,4.77
2023-05-12T18:03:49.026Z,5.53
2023-05-12T18:06:15.954Z,4.17
2023-05-12T18:08:46.676Z,4.77
2023-05-12T18:11:13.497Z,5.13
2023-05-12T18:13:40.194Z,5.20
2023-05-12T18:16:29.095Z,5.53
2023-05-12T18:19:04.123Z,5.27
2023-05-12T18:21:30.978Z,5.10
2023-05-12T18:23:57.656Z,5.60
2023-05-12T18:26:35.172Z,4.90
2023-05-12T18:29:01.921Z,5.10
2023-05-12T18:31:28.881Z,4.70
2023-05-12T18:34:05.632Z,5.17
2023-05-12T18:36:35.009Z,5.30
2023-05-12T18:39:01.755Z,5.33
2023-05-12T18:41:36.045Z,5.40
2023-05-12T18:44:02.963Z,6.63
2023-05-12T18:46:33.419Z,5.40
2023-05-12T18:49:02.902Z,5.37
2023-05-12T18:51:31.730Z,5.70
2023-05-12T18:53:58.468Z,5.47
2023-05-12T18:56:25.717Z,5.67
2023-05-12T18:58:52.517Z,5.67
2023-05-12T19:01:25.381Z,5.63
2023-05-12T19:04:37.454Z,6.00
2023-05-12T19:07:13.587Z,5.40
2023-05-12T19:09:40.528Z,5.70
2023-05-12T19:12:11.605Z,5.67
2023-05-12T19:14:47.561Z,5.30
2023-05-12T19:17:14.466Z,5.57
2023-05-12T19:19:41.282Z,5.33
2023-05-12T19:22:08.244Z,5.00
2023-05-12T19:24:37.786Z,5.67
2023-05-12T19:27:04.589Z,4.97
2023-05-12T19:29:31.288Z,5.50
2023-05-12T19:32:11.152Z,5.63
2023-05-12T19:34:38.009Z,5.70
2023-05-12T19:37:05.741Z,6.37
2023-05-12T19:39:32.658Z,5.50
2023-05-12T19:41:59.441Z,6.23
2023-05-12T19:44:27.012Z,5.97
2023-05-12T19:46:55.452Z,5.87
2023-05-12T19:49:22.253Z,5.57
2023-05-12T19:51:48.934Z,6.00
2023-05-12T19:54:16.143Z,5.60
2023-05-12T19:56:43.029Z,5.83
2023-05-12T19:59:09.756Z,5.50
2023-05-12T20:01:36.514Z,6.23
2023-05-12T20:04:03.175Z,5.50
2023-05-12T20:06:30.908Z,5.70
2023-05-12T20:08:59.446Z,5.93
2023-05-12T20:11:27.172Z,6.00
2023-05-12T20:13:53.937Z,5.57
2023-05-12T20:16:21.275Z,6.30
2023-05-12T20:18:48.051Z,5.40
2023-05-12T20:21:16.964Z,5.50
2023-05-12T20:23:43.756Z,5.87
2023-05-12T20:26:10.697Z,5.50
2023-05-12T20:28:37.561Z,5.40
2023-05-12T20:31:09.653Z,5.90
2023-05-12T20:33:46.529Z,6.03
2023-05-12T20:36:40.771Z,6.33
2023-05-12T20:40:18.201Z,6.30
2023-05-12T20:42:49.098Z,6.50
2023-05-12T20:45:17.340Z,6.40
2023-05-12T20:47:49.540Z,6.00
2023-05-12T20:50:17.030Z,6.50
2023-05-12T20:52:47.519Z,6.23
2023-05-12T20:55:46.906Z,6.90
2023-05-12T21:03:40.998Z,7.07
2023-05-12T21:06:30.136Z,6.50
2023-05-12T21:08:57.058Z,6.60
2023-05-12T21:12:11.603Z,6.27
2023-05-12T21:14:45.681Z,6.20
2023-05-12T21:17:32.578Z,6.50
2023-05-12T21:21:31.707Z,6.40
2023-05-12T21:24:11.518Z,6.50
2023-05-12T21:26:41.148Z,6.73
2023-05-12T21:29:13.128Z,5.80
2023-05-12T21:31:42.779Z,6.10
2023-05-12T21:34:12.231Z,6.40
2023-05-12T21:36:39.035Z,6.33
2023-05-12T21:42:04.572Z,6.80
2023-05-12T21:44:31.638Z,6.37
2023-05-12T21:47:01.071Z,6.57
2023-05-12T21:49:27.801Z,6.17
2023-05-12T21:51:55.525Z,6.10
2023-05-12T21:54:36.369Z,6.10
2023-05-12T21:57:06.060Z,6.40
2023-05-12T21:59:32.790Z,6.50
2023-05-12T22:02:00.232Z,7.00
2023-05-12T22:04:27.087Z,6.40
2023-05-12T22:06:53.841Z,6.40
2023-05-12T22:09:21.514Z,6.10
2023-05-12T22:11:48.384Z,6.57
2023-05-12T22:14:15.107Z,6.50
2023-05-12T22:16:42.750Z,6.53
2023-05-12T22:19:10.156Z,6.30
2023-05-12T22:21:37.016Z,6.70
2023-05-12T22:24:03.920Z,6.77
2023-05-12T22:26:30.765Z,6.10
2023-05-12T22:28:57.964Z,6.70
2023-05-12T22:31:25.916Z,5.90
2023-05-12T22:33:52.658Z,6.83
2023-05-12T22:36:19.401Z,6.33
2023-05-12T22:38:46.043Z,6.87
2023-05-12T22:41:12.774Z,7.30
2023-05-12T22:43:39.452Z,7.13
2023-05-12T22:46:11.147Z,7.17
2023-05-12T22:48:39.580Z,7.60
2023-05-12T22:51:09.915Z,6.80
2023-05-12T22:53:41.778Z,6.80
2023-05-12T22:56:08.752Z,7.50
2023-05-12T22:58:37.981Z,6.80
2023-05-12T23:01:14.936Z,6.90
2023-05-12T23:03:41.840Z,7.10
2023-05-12T23:06:08.489Z,7.13
2023-05-12T23:08:48.084Z,6.83
2023-05-12T23:11:15.614Z,6.83
2023-05-12T23:13:42.406Z,6.83
2023-05-12T23:16:11.134Z,7.27
2023-05-12T23:18:37.938Z,6.90
2023-05-12T23:21:07.288Z,7.10
2023-05-12T23:23:35.516Z,7.27
2023-05-12T23:26:08.149Z,7.83
2023-05-12T23:28:43.714Z,6.60
2023-05-12T23:31:14.858Z,7.50
2023-05-12T23:33:42.231Z,7.30
2023-05-12T23:36:13.550Z,6.87
2023-05-12T23:38:40.650Z,7.10
2023-05-12T23:41:07.317Z,7.17
2023-05-12T23:43:45.430Z,6.97
2023-05-12T23:46:13.312Z,6.70
2023-05-12T23:48:40.130Z,7.83
2023-05-12T23:51:09.701Z,7.93
2023-05-12T23:53:36.318Z,7.37
2023-05-12T23:56:02.993Z,7.50
2023-05-12T23:58:29.690Z,6.70
